LATILWSK

Guest
Details From LATI - Tirana Rinas
To LWSK - Skopje
Flight Number -
Tags generated
Created
Modified
Stats Distance 91 nm / 169 km
Max Altitude 5,200 ft / 1,585 m
Waypoints 3
Social Downloads 0
Likes 0
Share VATSIM

Download

Looking for another format? Having issues loading an existing format? Contact us
Advertisement - Login to hide

Notes

Basic altitude profile: - Ascent Rate: 2500ft/min - Ascent Speed: 250kts - Cruise Altitude: 35000ft - Cruise Speed: 420kts - Descent Rate: 1500ft/min - Descent Speed: 250kts

Route

LATI GOSTI LWSK

ID Type Via Altitude Latitude Longitude Leg Dist Tot Dist Heading (true) Name
O LATI APT - 0 ft / 0 m 41.41473˚ 19.72057˚ - 0 nm - Tirana Rinas
GOSTI FIX - 5,200 ft / 1,585 m 41.81167˚ 21.10833˚ 66 nm 66 nm 69° / 70° -
O LWSK APT - 0 ft / 0 m 41.96162˚ 21.62137˚ 24 nm 91 nm 68° / 69° Skopje

Altitude Profile

Advertisement - Login to hide

LATI

Details ICAO LATI (TIA)
Name Tirana Rinas
Region Albania
Timezone Europe/Tirane (UTC+1.0)
Stats Elevation 126 ft / 38 m (AMSL)
Location 41.414732° 19.720569°
Runways 1
Magnetic Variation 4.233° E

METAR

LATI 181650Z VRB02KT 9999 FEW030 BKN045 06/M02 Q1017 NOSIG

Decode

TAF

TAF TAF LATI 181110Z 1812/1912 08008KT 9999 SCT020 BKN060 TX09/1812Z TNM02/1905Z TEMPO 1812/1817 FEW020CB BECMG 1903/1905 CAVOK

Decode

Departure Runways

ID Width Length Bearing (true) Bearing (mag) Surface Threshold Offset Overrun Length
18 148 ft / 45 m 8,984 ft / 2,738 m 174.31° 170.08° Asphalt 500 ft / 152 m 0 ft / 0 m
36 148 ft / 45 m 8,984 ft / 2,738 m 354.31° 350.08° Asphalt 500 ft / 152 m 0 ft / 0 m

LWSK

Details ICAO LWSK (SKP)
Name Skopje
Region Macedonia
Timezone Europe/Skopje (UTC+1.0)
Stats Elevation 781 ft / 238 m (AMSL)
Location 41.961619° 21.621372°
Runways 1
Magnetic Variation 4.580° E

METAR

LWSK 181700Z VRB03KT 9999 OVC050 02/M03 Q1020 NOSIG

Decode

TAF

TAF LWSK 181130Z 1812/1912 VRB02KT 9999 SCT040 OVC060 PROB30 18015/1819 34008KT SN SCT025 OVC040

Decode

Destination Runways

ID Width Length Bearing (true) Bearing (mag) Surface Threshold Offset Overrun Length
16 140 ft / 43 m 8,036 ft / 2,449 m 165.46° 160.88° Asphalt 0 ft / 0 m 80 ft / 24 m
34 140 ft / 43 m 8,036 ft / 2,449 m 345.47° 340.89° Asphalt 0 ft / 0 m 80 ft / 24 m

Approach Navaids

Runway Type Ident Frequency Range Bearing (true) Bearing (mag) Slope Elevation
34 Localiser MSK 108.70 MHz 25 nm / 46 km 345.00° 340.42° - 764 ft / 233 m (AMSL)
34 Glidescope MSK 108.70 MHz 25 nm / 46 km 345.00° 340.42° 3.30° 813 ft / 248 m (AMSL)
34 DME MSK 108.70 MHz 50 nm / 93 km - - - 758 ft / 231 m (AMSL)

Popular Alternatives